Time;durP1;ratioP1;P1;durP2;ratioP2;P2;SDS_P1;SDS_P2;PMS_P1;PMS_P2;Temp;Humidity;BMP_temperature;BMP_pressure;BME280_temperature;BME280_humidity;BME280_pressure;Samples;Min_cycle;Max_cycle;Signal;HPM_P1;HPM_P2
2023/01/13 00:01:50;;;;;;;31.38;3.30;;;9.40;99.90;;;;;;5128584;27;20051;-80
2023/01/13 00:04:16;;;;;;;23.35;3.65;;;9.40;99.90;;;;;;5112828;27;20058;-81
2023/01/13 00:06:41;;;;;;;20.73;4.15;;;9.30;99.90;;;;;;5095383;27;20055;-80
2023/01/13 00:09:07;;;;;;;28.40;4.70;;;9.30;99.90;;;;;;5128734;27;20051;-82
2023/01/13 00:11:33;;;;;;;27.55;3.53;;;9.30;99.90;;;;;;5112162;27;20051;-81
2023/01/13 00:13:59;;;;;;;20.75;3.70;;;9.20;99.90;;;;;;5127967;27;20500;-81
2023/01/13 00:16:24;;;;;;;22.70;3.90;;;9.40;99.90;;;;;;5127709;27;20130;-81
2023/01/13 00:18:50;;;;;;;33.25;3.70;;;9.00;99.90;;;;;;5126958;27;20135;-80
2023/01/13 00:21:22;;;;;;;21.85;3.28;;;9.90;99.90;;;;;;5127259;27;20460;-81
2023/01/13 00:23:48;;;;;;;31.02;3.95;;;10.00;99.90;;;;;;5127464;27;20116;-81
2023/01/13 00:26:23;;;;;;;29.13;5.70;;;8.80;99.90;;;;;;5128621;27;20047;-81
2023/01/13 00:28:49;;;;;;;36.70;5.63;;;9.80;99.90;;;;;;5127356;27;20043;-81
2023/01/13 00:31:17;;;;;;;28.98;3.63;;;8.80;99.90;;;;;;5128937;27;20051;-81
2023/01/13 00:33:43;;;;;;;35.95;4.50;;;9.50;99.90;;;;;;5129385;27;20065;-81
2023/01/13 00:36:12;;;;;;;30.30;4.28;;;8.70;99.90;;;;;;5129265;27;20043;-80
2023/01/13 00:38:39;;;;;;;32.78;4.93;;;9.80;99.90;;;;;;5127711;27;20363;-80
2023/01/13 00:41:25;;;;;;;38.33;5.45;;;8.60;99.90;;;;;;5109784;27;20112;-81
2023/01/13 00:43:50;;;;;;;32.53;4.40;;;8.50;99.90;;;;;;5127130;27;20054;-80
2023/01/13 00:46:19;;;;;;;37.30;4.40;;;8.50;99.90;;;;;;5128048;27;20046;-81
2023/01/13 00:48:46;;;;;;;34.60;5.80;;;8.90;99.90;;;;;;5126593;27;20278;-81
2023/01/13 00:51:14;;;;;;;43.20;4.75;;;9.20;99.90;;;;;;5127984;27;20066;-81
2023/01/13 00:53:42;;;;;;;38.95;5.80;;;8.70;99.90;;;;;;5127862;27;20047;-81
2023/01/13 00:56:15;;;;;;;39.15;5.30;;;8.40;99.90;;;;;;5109962;27;20051;-82
2023/01/13 00:58:41;;;;;;;;;;;8.50;99.90;;;;;;5127294;27;20042;-81
2023/01/13 01:01:12;;;;;;;30.10;5.28;;;8.40;99.90;;;;;;5109620;27;19919;-81
2023/01/13 01:03:38;;;;;;;29.63;4.90;;;9.10;99.90;;;;;;5128019;27;20058;-81
2023/01/13 01:06:20;;;;;;;36.70;5.30;;;9.20;99.90;;;;;;5109526;27;20046;-80
2023/01/13 01:08:46;;;;;;;31.52;4.30;;;8.30;99.90;;;;;;5128034;27;20514;-82
2023/01/13 01:11:15;;;;;;;41.85;5.18;;;8.30;99.90;;;;;;5127753;27;20078;-81
2023/01/13 01:13:42;;;;;;;31.83;5.25;;;8.30;99.90;;;;;;5126908;27;20075;-81
2023/01/13 01:16:10;;;;;;;37.05;5.20;;;8.20;99.90;;;;;;5128400;27;20043;-82
2023/01/13 01:18:38;;;;;;;30.45;5.35;;;8.20;99.90;;;;;;5126450;27;20540;-81
2023/01/13 01:21:04;;;;;;;26.70;4.20;;;9.20;99.90;;;;;;5126292;27;20043;-81
2023/01/13 01:23:31;;;;;;;33.25;6.63;;;8.20;99.90;;;;;;5126222;27;20039;-81
2023/01/13 01:26:04;;;;;;;33.65;5.55;;;8.20;99.90;;;;;;5108583;27;20055;-81
2023/01/13 01:28:30;;;;;;;33.28;6.45;;;7.30;99.90;;;;;;5126416;27;20078;-81
2023/01/13 01:31:00;;;;;;;28.73;5.35;;;8.40;99.90;;;;;;5108451;27;20505;-80
2023/01/13 01:33:26;;;;;;;39.05;4.80;;;8.20;99.90;;;;;;5093076;27;20050;-81
2023/01/13 01:35:55;;;;;;;28.80;5.70;;;8.70;99.90;;;;;;5125374;27;20051;-81
2023/01/13 01:38:22;;;;;;;28.17;5.30;;;8.10;99.90;;;;;;5125913;27;20385;-81
2023/01/13 01:40:48;;;;;;;36.60;5.55;;;8.10;99.90;;;;;;5092010;27;20043;-81
2023/01/13 01:46:00;;;;;;;38.40;5.75;;;8.30;99.90;;;;;;5125538;27;20119;-81
2023/01/13 01:48:28;;;;;;;37.20;5.97;;;8.10;99.90;;;;;;5108475;27;20047;-82
2023/01/13 01:50:54;;;;;;;26.92;4.40;;;8.10;99.90;;;;;;5125577;27;20051;-81
2023/01/13 01:53:22;;;;;;;43.08;5.80;;;8.10;99.90;;;;;;5107735;28;20158;-82
2023/01/13 01:55:48;;;;;;;31.80;5.63;;;8.10;99.90;;;;;;5126826;27;20046;-81
2023/01/13 01:58:22;;;;;;;30.50;5.53;;;8.10;99.90;;;;;;5125437;27;20046;-81
2023/01/13 02:00:47;;;;;;;42.63;4.70;;;8.90;99.90;;;;;;5126815;27;20451;-81
2023/01/13 02:03:15;;;;;;;32.10;5.13;;;8.10;99.90;;;;;;5126844;27;20046;-81
2023/01/13 02:05:41;;;;;;;42.97;7.03;;;8.10;99.90;;;;;;5125402;27;20043;-81
2023/01/13 02:08:10;;;;;;;31.42;5.60;;;8.40;99.90;;;;;;5091412;28;20055;-81
2023/01/13 02:10:38;;;;;;;41.90;5.45;;;8.00;99.90;;;;;;5125378;28;20090;-82
2023/01/13 02:13:06;;;;;;;29.15;4.97;;;9.00;99.90;;;;;;5126698;27;20050;-81
2023/01/13 02:15:44;;;;;;;26.48;4.60;;;8.10;99.90;;;;;;5127102;27;20151;-81
2023/01/13 02:18:25;;;;;;;37.95;4.57;;;8.10;99.90;;;;;;5125314;28;20096;-81
2023/01/13 02:21:12;;;;;;;32.83;5.07;;;8.10;99.90;;;;;;5127108;28;20124;-81
2023/01/13 02:27:11;;;;;;;30.85;5.15;;;8.10;99.90;;;;;;5125640;28;20363;-81
2023/01/13 02:32:58;;;;;;;44.95;7.57;;;8.10;99.90;;;;;;5126049;28;20043;-81
2023/01/13 02:35:35;;;;;;;35.67;5.07;;;8.10;99.90;;;;;;5108234;28;20050;-81
2023/01/13 02:38:02;;;;;;;44.22;6.40;;;8.10;99.90;;;;;;5125765;28;20490;-82
2023/01/13 02:40:35;;;;;;;46.80;6.28;;;8.10;99.90;;;;;;5126685;27;20039;-81
2023/01/13 02:46:16;;;;;;;32.95;5.18;;;8.10;99.90;;;;;;5125311;28;20103;-81
2023/01/13 02:48:44;;;;;;;38.22;4.72;;;9.40;99.90;;;;;;5107910;28;20049;-81
2023/01/13 02:51:17;;;;;;;31.65;4.05;;;8.00;99.90;;;;;;5125175;28;20050;-81
2023/01/13 02:53:46;;;;;;;;;;;8.00;99.90;;;;;;5125253;28;20062;-81
2023/01/13 02:56:15;;;;;;;33.25;4.00;;;8.00;99.90;;;;;;5125366;28;20009;-81
2023/01/13 02:58:42;;;;;;;37.22;5.50;;;8.10;99.90;;;;;;5124531;28;20386;-82
2023/01/13 03:01:10;;;;;;;44.75;6.32;;;8.70;99.90;;;;;;5124528;28;20540;-81
2023/01/13 03:03:39;;;;;;;40.60;5.13;;;7.60;99.90;;;;;;5107675;28;20122;-82
2023/01/13 03:06:35;;;;;;;37.63;6.43;;;8.50;99.90;;;;;;5093829;27;20027;-81
2023/01/13 03:09:24;;;;;;;38.20;6.90;;;8.10;99.90;;;;;;5130260;27;20377;-81
2023/01/13 03:12:14;;;;;;;35.92;4.80;;;8.20;99.90;;;;;;5130057;27;20435;-81
2023/01/13 03:15:01;;;;;;;32.45;6.13;;;8.20;99.90;;;;;;5129588;27;20054;-82
2023/01/13 03:18:12;;;;;;;29.33;6.05;;;8.30;99.90;;;;;;5111506;27;20424;-82
2023/01/13 03:20:46;;;;;;;34.45;5.13;;;8.30;99.90;;;;;;5089473;28;20055;-82
2023/01/13 03:23:23;;;;;;;31.40;5.00;;;8.20;99.90;;;;;;5106255;28;20044;-83
2023/01/13 03:26:01;;;;;;;32.00;4.75;;;8.20;99.90;;;;;;5113257;27;20196;-82
2023/01/13 03:28:32;;;;;;;23.58;4.13;;;8.80;99.90;;;;;;5111730;27;20363;-82
2023/01/13 03:31:07;;;;;;;23.80;4.80;;;9.10;99.90;;;;;;5128508;27;20043;-82
2023/01/13 03:33:47;;;;;;;36.22;7.13;;;8.20;99.90;;;;;;5129507;27;20498;-82
2023/01/13 03:36:16;;;;;;;23.25;3.83;;;8.20;99.90;;;;;;5130185;27;20047;-83
2023/01/13 03:38:50;;;;;;;30.10;4.65;;;8.20;99.90;;;;;;5129981;27;20043;-83
2023/01/13 03:41:43;;;;;;;32.63;4.05;;;8.20;99.90;;;;;;5129627;27;20049;-83
2023/01/13 03:44:21;;;;;;;31.33;4.93;;;8.20;99.90;;;;;;5128299;27;20050;-83
2023/01/13 03:47:20;;;;;;;29.98;5.05;;;8.20;99.90;;;;;;5111322;27;20054;-83
2023/01/13 03:49:59;;;;;;;35.25;5.82;;;8.30;99.90;;;;;;5129519;27;20062;-82
2023/01/13 03:52:29;;;;;;;31.67;4.43;;;8.30;99.90;;;;;;5129844;27;20072;-83
2023/01/13 03:55:19;;;;;;;29.92;4.07;;;8.40;99.90;;;;;;5127886;27;20099;-82
2023/01/13 03:57:55;;;;;;;26.58;4.28;;;8.40;99.90;;;;;;5128475;27;20051;-81
2023/01/13 04:00:26;;;;;;;29.40;3.75;;;8.10;99.90;;;;;;5128008;27;20104;-82
2023/01/13 04:03:06;;;;;;;27.70;3.40;;;8.40;99.90;;;;;;5129683;27;20035;-82
2023/01/13 04:05:37;;;;;;;29.38;4.90;;;8.60;99.90;;;;;;5127612;27;20089;-83
2023/01/13 04:08:20;;;;;;;31.83;5.03;;;8.60;99.90;;;;;;5129449;27;20123;-83
2023/01/13 04:11:08;;;;;;;33.85;5.38;;;8.40;99.90;;;;;;5127271;27;20493;-82
2023/01/13 04:13:40;;;;;;;26.70;4.50;;;8.40;99.90;;;;;;5110957;27;20047;-82
2023/01/13 04:16:07;;;;;;;34.25;4.80;;;8.40;99.90;;;;;;5127367;27;20435;-82
2023/01/13 04:18:36;;;;;;;30.33;4.18;;;8.40;99.90;;;;;;5128873;27;20039;-82
2023/01/13 04:21:03;;;;;;;28.85;5.75;;;8.30;99.90;;;;;;5127374;27;20096;-82
2023/01/13 04:23:28;;;;;;;31.00;4.95;;;8.30;99.90;;;;;;5128666;27;20440;-81
2023/01/13 04:25:55;;;;;;;34.47;6.05;;;8.30;99.90;;;;;;5093245;27;20047;-81
2023/01/13 04:28:21;;;;;;;25.73;4.35;;;8.30;99.90;;;;;;5128752;27;20043;-81
2023/01/13 04:30:48;;;;;;;30.48;5.63;;;8.20;99.90;;;;;;5128846;27;20689;-80
2023/01/13 04:33:15;;;;;;;33.75;4.88;;;8.30;99.90;;;;;;5127522;27;20564;-80
2023/01/13 04:35:42;;;;;;;41.70;6.63;;;9.00;99.90;;;;;;5110622;27;20047;-80
2023/01/13 04:38:14;;;;;;;31.73;5.15;;;8.40;99.90;;;;;;5127058;27;20047;-81
2023/01/13 04:40:40;;;;;;;34.78;4.45;;;8.70;99.90;;;;;;5126725;27;20043;-81
2023/01/13 04:43:06;;;;;;;37.03;7.63;;;8.20;99.90;;;;;;5127019;27;20049;-81
2023/01/13 04:45:32;;;;;;;33.53;4.18;;;9.20;99.90;;;;;;5128183;27;20031;-81
2023/01/13 04:47:58;;;;;;;33.15;5.75;;;8.30;99.90;;;;;;5126683;27;20057;-81
2023/01/13 04:50:24;;;;;;;35.25;5.63;;;8.70;99.90;;;;;;5128290;27;20125;-81
2023/01/13 04:52:52;;;;;;;29.17;3.92;;;8.40;99.90;;;;;;5127841;27;20054;-81
2023/01/13 04:55:18;;;;;;;38.45;5.05;;;8.40;99.90;;;;;;5127042;27;20039;-81
2023/01/13 04:57:44;;;;;;;32.30;4.07;;;8.50;99.90;;;;;;5126958;27;20051;-80
2023/01/13 05:00:13;;;;;;;39.85;4.20;;;9.30;99.90;;;;;;5092165;27;20553;-81
2023/01/13 05:02:39;;;;;;;27.20;4.03;;;8.40;99.90;;;;;;5127565;27;20486;-81
2023/01/13 05:05:05;;;;;;;33.70;5.72;;;8.50;99.90;;;;;;5092846;27;20147;-81
2023/01/13 05:07:31;;;;;;;28.15;5.75;;;8.50;99.90;;;;;;5108892;27;20047;-81
2023/01/13 05:09:57;;;;;;;38.00;4.80;;;8.50;99.90;;;;;;5126369;27;20058;-81
2023/01/13 05:17:55;;;;;;;31.27;4.60;;;8.60;99.90;;;;;;5127985;27;20112;-81
2023/01/13 05:20:21;;;;;;;35.20;4.63;;;8.60;99.90;;;;;;5125870;27;20051;-81
2023/01/13 05:25:33;;;;;;;26.10;3.10;;;9.40;99.90;;;;;;5111830;27;20543;-81
2023/01/13 05:27:59;;;;;;;28.80;4.15;;;9.60;99.90;;;;;;5124722;27;20061;-82
2023/01/13 05:30:31;;;;;;;29.98;4.15;;;8.60;99.90;;;;;;5108452;27;20047;-82
2023/01/13 05:32:57;;;;;;;31.08;4.50;;;8.60;99.90;;;;;;5126753;27;20044;-82
2023/01/13 05:35:24;;;;;;;24.25;3.40;;;8.70;99.90;;;;;;5125485;27;20043;-82
2023/01/13 05:37:49;;;;;;;22.90;3.25;;;8.70;99.90;;;;;;5125907;27;20410;-82
2023/01/13 05:43:20;;;;;;;26.98;3.67;;;8.70;99.90;;;;;;5126040;27;20058;-82
2023/01/13 05:45:46;;;;;;;33.88;4.05;;;8.80;99.90;;;;;;5126610;27;20050;-82
2023/01/13 05:48:12;;;;;;;24.70;4.22;;;8.80;99.90;;;;;;5125191;27;20035;-81
2023/01/13 05:50:39;;;;;;;13.40;2.78;;;8.80;99.90;;;;;;5124644;27;20046;-81
2023/01/13 05:53:05;;;;;;;25.40;3.95;;;8.70;99.90;;;;;;5090248;27;20059;-82
2023/01/13 05:55:31;;;;;;;21.23;3.20;;;8.80;99.90;;;;;;5108899;28;20498;-82
2023/01/13 05:57:56;;;;;;;28.77;4.13;;;8.70;99.90;;;;;;5108087;27;20086;-81
2023/01/13 06:00:22;;;;;;;21.95;4.32;;;9.30;99.90;;;;;;5127407;27;20074;-84
2023/01/13 06:02:48;;;;;;;22.67;3.00;;;8.80;99.90;;;;;;5108125;28;20039;-82
2023/01/13 06:05:14;;;;;;;31.05;3.63;;;8.90;99.90;;;;;;5109117;28;20047;-82
2023/01/13 06:07:40;;;;;;;22.70;2.70;;;8.70;99.90;;;;;;5108351;27;20050;-82
2023/01/13 06:10:06;;;;;;;20.25;3.28;;;9.50;99.90;;;;;;5126083;28;20043;-82
2023/01/13 06:12:32;;;;;;;25.98;3.90;;;8.70;99.90;;;;;;5125328;28;20085;-81
2023/01/13 06:14:58;;;;;;;28.50;4.13;;;8.70;99.90;;;;;;5125333;28;20454;-81
2023/01/13 06:17:23;;;;;;;22.38;3.45;;;8.70;99.90;;;;;;5091036;28;20261;-81
2023/01/13 06:19:49;;;;;;;36.65;6.15;;;8.70;99.90;;;;;;5125360;28;20047;-81
2023/01/13 06:22:31;;;;;;;28.40;3.65;;;9.90;99.90;;;;;;5125229;28;20110;-81
2023/01/13 06:24:57;;;;;;;22.23;3.22;;;8.60;99.90;;;;;;5126054;28;20632;-81
2023/01/13 06:27:23;;;;;;;27.35;3.90;;;8.60;99.90;;;;;;5124493;28;20142;-80
2023/01/13 06:29:49;;;;;;;33.72;4.00;;;8.60;99.90;;;;;;5126614;27;20036;-82
2023/01/13 06:32:26;;;;;;;26.85;4.25;;;8.60;99.90;;;;;;5107749;28;20586;-81
2023/01/13 06:34:58;;;;;;;32.35;3.85;;;9.50;99.90;;;;;;5127788;27;20554;-82
2023/01/13 06:37:25;;;;;;;23.83;5.60;;;8.90;99.90;;;;;;5127291;28;20434;-82
2023/01/13 06:39:56;;;;;;;20.70;3.78;;;8.70;99.90;;;;;;5127501;27;20428;-83
2023/01/13 06:45:08;;;;;;;25.30;3.83;;;8.90;99.90;;;;;;5128874;27;20490;-83
2023/01/13 06:47:34;;;;;;;19.60;2.88;;;9.70;99.90;;;;;;5112429;27;20044;-82
2023/01/13 06:49:59;;;;;;;18.33;3.40;;;9.30;99.90;;;;;;5130485;27;20046;-82
2023/01/13 06:52:29;;;;;;;27.17;4.22;;;8.50;99.90;;;;;;5111791;27;20416;-82
2023/01/13 06:54:55;;;;;;;27.13;3.45;;;8.50;99.90;;;;;;5129231;27;20058;-82
2023/01/13 06:57:21;;;;;;;24.30;3.72;;;8.40;99.90;;;;;;5130099;27;20047;-84
2023/01/13 06:59:47;;;;;;;27.52;5.07;;;8.40;99.90;;;;;;5132166;27;20573;-81
2023/01/13 07:02:12;;;;;;;20.48;2.90;;;8.30;99.90;;;;;;5132241;27;20159;-82
2023/01/13 07:04:39;;;;;;;31.70;4.25;;;9.20;99.90;;;;;;5131187;27;20096;-82
2023/01/13 07:07:04;;;;;;;28.02;3.30;;;8.20;99.90;;;;;;5112147;27;20490;-82
2023/01/13 07:09:30;;;;;;;17.75;3.00;;;8.20;99.90;;;;;;5129414;27;20035;-81
2023/01/13 07:11:56;;;;;;;19.80;3.30;;;8.20;99.90;;;;;;5128663;27;20513;-81
2023/01/13 07:17:05;;;;;;;19.80;2.70;;;8.50;99.90;;;;;;5128552;27;20047;-82
2023/01/13 07:19:31;;;;;;;19.90;3.03;;;8.10;99.90;;;;;;5128199;27;20051;-81
2023/01/13 07:21:57;;;;;;;24.17;3.50;;;9.20;99.90;;;;;;5128736;27;20090;-82
2023/01/13 07:24:22;;;;;;;21.63;3.75;;;8.00;99.90;;;;;;5111074;27;20071;-81
2023/01/13 07:26:50;;;;;;;19.60;2.78;;;8.00;99.90;;;;;;5128308;27;20051;-81
2023/01/13 07:29:16;;;;;;;20.48;3.03;;;7.90;99.90;;;;;;5128883;27;20398;-81
2023/01/13 07:31:41;;;;;;;25.55;3.88;;;7.90;99.90;;;;;;5127937;27;20043;-81
2023/01/13 07:34:07;;;;;;;23.17;2.85;;;7.80;99.90;;;;;;5111213;27;20062;-82
2023/01/13 07:36:33;;;;;;;23.27;3.63;;;7.80;99.90;;;;;;5127730;27;20058;-81
2023/01/13 07:38:59;;;;;;;26.65;3.30;;;7.80;99.90;;;;;;5128159;27;20045;-82
2023/01/13 07:44:11;;;;;;;24.13;3.25;;;7.70;99.90;;;;;;5127840;27;20167;-81
2023/01/13 07:46:38;;;;;;;16.42;2.85;;;7.70;99.90;;;;;;5128174;27;20086;-82
2023/01/13 07:49:04;;;;;;;21.05;2.45;;;8.00;99.90;;;;;;5129046;27;20035;-81
2023/01/13 07:51:30;;;;;;;25.85;4.60;;;7.60;99.90;;;;;;5110030;27;20481;-83
2023/01/13 07:53:56;;;;;;;21.90;2.83;;;7.60;99.90;;;;;;5127789;27;20096;-81
2023/01/13 07:56:22;;;;;;;24.58;2.90;;;8.30;99.90;;;;;;5111340;27;20078;-82
2023/01/13 07:58:49;;;;;;;24.25;3.97;;;7.60;99.90;;;;;;5128122;27;20122;-83
2023/01/13 08:01:17;;;;;;;20.02;2.97;;;7.70;99.90;;;;;;5110865;27;20086;-83
2023/01/13 08:03:44;;;;;;;25.27;3.17;;;7.90;99.90;;;;;;5127549;27;20474;-82
2023/01/13 08:06:10;;;;;;;27.67;3.55;;;7.70;99.90;;;;;;5109995;27;20468;-81
2023/01/13 08:08:37;;;;;;;23.48;2.85;;;7.70;99.90;;;;;;5127686;27;20132;-82
2023/01/13 08:11:05;;;;;;;22.52;3.47;;;7.80;99.90;;;;;;5127827;27;20111;-81
2023/01/13 08:13:31;;;;;;;25.00;3.03;;;7.70;99.90;;;;;;5110336;27;20050;-81
2023/01/13 08:16:02;;;;;;;24.40;4.47;;;7.70;99.90;;;;;;5127464;27;20039;-82
2023/01/13 08:18:28;;;;;;;18.10;3.17;;;7.80;99.90;;;;;;5126867;27;20512;-82
2023/01/13 08:20:54;;;;;;;25.70;3.50;;;7.80;99.90;;;;;;5110252;27;20047;-81
2023/01/13 08:23:21;;;;;;;20.38;4.25;;;7.80;99.90;;;;;;5126685;27;20054;-82
2023/01/13 08:25:48;;;;;;;23.77;3.00;;;8.50;99.90;;;;;;5126902;27;20138;-81
2023/01/13 08:28:15;;;;;;;22.00;3.38;;;7.90;99.90;;;;;;5127378;27;20046;-82
2023/01/13 08:30:41;;;;;;;23.67;3.17;;;7.90;99.90;;;;;;5127211;27;20055;-81
2023/01/13 08:33:08;;;;;;;29.33;4.32;;;7.90;99.90;;;;;;5109630;27;20028;-82
2023/01/13 08:35:36;;;;;;;30.08;5.15;;;7.90;99.90;;;;;;5109504;27;20039;-82
2023/01/13 08:38:03;;;;;;;32.67;3.72;;;8.00;99.90;;;;;;5109282;27;20043;-82
2023/01/13 08:40:29;;;;;;;31.80;3.33;;;8.80;99.90;;;;;;5092047;27;20054;-82
2023/01/13 08:42:55;;;;;;;27.02;3.60;;;8.10;99.90;;;;;;5109570;27;20318;-82
2023/01/13 08:45:21;;;;;;;27.38;4.40;;;8.10;99.90;;;;;;5109391;27;20043;-82
2023/01/13 08:47:47;;;;;;;27.40;4.10;;;8.70;99.90;;;;;;5126517;27;20043;-81
2023/01/13 08:50:13;;;;;;;30.85;3.88;;;8.10;99.90;;;;;;5092364;27;20054;-82
2023/01/13 08:52:39;;;;;;;30.08;3.95;;;8.20;99.90;;;;;;5108719;27;20104;-82
2023/01/13 08:55:06;;;;;;;22.45;3.92;;;8.30;99.90;;;;;;5092297;27;20035;-82
2023/01/13 08:57:32;;;;;;;24.55;3.95;;;8.20;99.90;;;;;;5109101;27;20713;-81
2023/01/13 08:59:58;;;;;;;25.52;3.33;;;8.20;99.90;;;;;;5092089;27;20039;-82
2023/01/13 09:02:25;;;;;;;24.80;3.78;;;8.20;99.90;;;;;;5108960;27;20051;-82
2023/01/13 09:04:51;;;;;;;27.25;4.80;;;8.20;99.90;;;;;;5126226;27;20458;-82
2023/01/13 09:07:17;;;;;;;28.75;4.28;;;9.20;99.90;;;;;;5126990;27;20315;-81
2023/01/13 09:09:43;;;;;;;31.85;4.70;;;8.20;99.90;;;;;;5126517;27;20111;-82
2023/01/13 09:14:55;;;;;;;28.92;3.13;;;8.10;99.90;;;;;;5126198;27;20400;-82
2023/01/13 09:17:22;;;;;;;26.25;5.82;;;8.10;99.90;;;;;;5109473;27;20043;-82
2023/01/13 09:19:48;;;;;;;30.25;4.75;;;8.00;99.90;;;;;;5109053;27;20043;-82
2023/01/13 09:22:16;;;;;;;29.52;4.03;;;8.00;99.90;;;;;;5125985;27;20055;-83
2023/01/13 09:24:42;;;;;;;18.70;2.60;;;8.60;99.90;;;;;;5126001;27;20035;-83
2023/01/13 09:27:13;;;;;;;19.90;3.53;;;8.00;99.90;;;;;;5109252;27;20393;-83
2023/01/13 09:29:39;;;;;;;18.38;3.30;;;7.90;99.90;;;;;;5126391;27;20051;-83
2023/01/13 09:32:05;;;;;;;21.25;3.55;;;7.90;99.90;;;;;;5108642;27;20397;-83
2023/01/13 09:37:15;;;;;;;19.23;3.00;;;7.80;99.90;;;;;;5111780;27;20400;-83
2023/01/13 09:39:44;;;;;;;20.92;3.75;;;7.90;99.90;;;;;;5125698;27;20043;-82
2023/01/13 09:45:10;;;;;;;22.27;3.10;;;7.70;99.90;;;;;;5125262;27;20051;-83
2023/01/13 09:47:54;;;;;;;16.33;2.42;;;7.70;99.90;;;;;;5108891;27;20103;-83
2023/01/13 09:50:39;;;;;;;22.77;3.33;;;7.70;99.90;;;;;;5108193;27;20039;-82
2023/01/13 09:53:10;;;;;;;23.23;3.30;;;7.70;99.90;;;;;;5107742;27;20063;-83
2023/01/13 09:55:36;;;;;;;26.05;4.25;;;7.70;99.90;;;;;;5125477;27;20092;-83
2023/01/13 09:58:11;;;;;;;20.83;3.08;;;7.70;99.90;;;;;;5124979;27;20039;-83
2023/01/13 10:00:52;;;;;;;28.67;3.17;;;8.50;99.90;;;;;;5108662;27;20039;-83
2023/01/13 10:03:26;;;;;;;27.92;3.10;;;7.70;99.90;;;;;;5125849;27;20447;-84
2023/01/13 10:06:16;;;;;;;27.33;3.15;;;8.70;99.90;;;;;;5125607;27;20046;-84
2023/01/13 10:08:43;;;;;;;17.58;3.33;;;7.70;99.90;;;;;;5108949;28;20399;-84
2023/01/13 10:14:26;;;;;;;22.00;3.70;;;8.90;99.90;;;;;;5125412;27;20124;-83
2023/01/13 10:17:47;;;;;;;25.23;3.28;;;7.70;99.90;;;;;;5108029;28;20053;-82
2023/01/13 10:20:28;;;;;;;22.98;4.47;;;7.70;99.90;;;;;;5026418;28;20488;-84
2023/01/13 10:23:25;;;;;;;21.85;2.83;;;7.70;99.90;;;;;;5097997;28;20112;-84
2023/01/13 10:26:09;;;;;;;22.45;2.75;;;7.80;99.90;;;;;;5125489;28;20043;-84
2023/01/13 10:28:35;;;;;;;29.42;3.45;;;7.80;99.90;;;;;;5108630;28;20043;-83
2023/01/13 10:31:09;;;;;;;19.27;4.25;;;7.90;99.90;;;;;;5108588;28;20035;-82
2023/01/13 10:33:35;;;;;;;27.00;3.42;;;7.90;99.90;;;;;;5125411;28;20058;-85
2023/01/13 10:36:21;;;;;;;24.10;3.03;;;8.90;99.90;;;;;;5124603;28;20035;-82
2023/01/13 10:38:49;;;;;;;22.02;3.08;;;8.00;99.90;;;;;;5125377;28;20418;-83
2023/01/13 10:41:15;;;;;;;19.95;3.08;;;8.00;99.90;;;;;;5125150;28;20047;-84
2023/01/13 10:43:51;;;;;;;20.95;3.97;;;8.60;99.90;;;;;;5107782;28;20043;-85
2023/01/13 10:46:18;;;;;;;15.38;3.25;;;8.00;99.90;;;;;;5108076;28;20047;-85
2023/01/13 10:48:58;;;;;;;25.33;3.83;;;9.30;99.90;;;;;;5107479;28;20045;-84
2023/01/13 10:51:50;;;;;;;19.88;2.47;;;8.40;99.90;;;;;;5107947;28;20042;-85
2023/01/13 10:54:21;;;;;;;16.58;2.80;;;8.10;99.90;;;;;;5106297;28;20141;-84
2023/01/13 10:56:48;;;;;;;15.80;3.10;;;8.10;99.90;;;;;;5125265;28;20045;-85
2023/01/13 10:59:23;;;;;;;16.02;2.47;;;8.20;99.90;;;;;;5107832;28;20046;-84
2023/01/13 11:02:06;;;;;;;22.67;2.83;;;8.20;99.90;;;;;;5124811;28;20039;-87
2023/01/13 11:04:38;;;;;;;23.52;3.80;;;8.20;99.90;;;;;;5107886;28;20046;-83
2023/01/13 11:07:38;;;;;;;16.23;2.63;;;8.30;99.90;;;;;;5107715;28;20051;-83
2023/01/13 11:10:15;;;;;;;21.50;2.97;;;8.20;99.90;;;;;;5101822;28;20047;-84
2023/01/13 11:12:57;;;;;;;19.42;2.63;;;8.30;99.90;;;;;;5124869;28;20104;-84
2023/01/13 11:15:36;;;;;;;28.85;3.55;;;9.30;99.90;;;;;;5107722;28;20047;-84
2023/01/13 11:18:23;;;;;;;15.07;2.75;;;8.30;99.90;;;;;;5124774;28;20043;-84
2023/01/13 11:20:50;;;;;;;20.60;4.10;;;8.40;99.90;;;;;;5107912;28;20051;-83
2023/01/13 11:23:33;;;;;;;26.35;6.75;;;8.40;99.90;;;;;;5124080;28;20587;-83
2023/01/13 11:26:11;;;;;;;16.30;2.67;;;8.30;99.90;;;;;;5124326;27;20055;-84
2023/01/13 11:28:54;;;;;;;24.55;2.58;;;8.40;99.90;;;;;;5128403;27;20047;-83
2023/01/13 11:31:28;;;;;;;12.35;1.90;;;8.30;99.90;;;;;;5128005;27;20058;-83
2023/01/13 11:33:59;;;;;;;17.10;3.58;;;8.40;99.90;;;;;;5111447;27;20125;-83
2023/01/13 11:36:42;;;;;;;21.42;3.88;;;8.30;99.90;;;;;;5110623;27;20062;-84
2023/01/13 11:39:41;;;;;;;14.65;2.97;;;8.30;99.90;;;;;;5111727;27;20133;-83
2023/01/13 11:42:27;;;;;;;19.80;2.63;;;8.40;99.90;;;;;;5127336;27;20145;-84
2023/01/13 11:45:12;;;;;;;20.40;2.60;;;8.40;99.90;;;;;;5110691;27;20082;-84
2023/01/13 11:47:38;;;;;;;18.67;3.67;;;8.40;99.90;;;;;;5129339;27;20084;-84
2023/01/13 11:50:15;;;;;;;13.52;3.42;;;8.50;99.90;;;;;;5128219;27;20058;-83
2023/01/13 11:53:13;;;;;;;16.17;2.00;;;8.50;99.90;;;;;;5126826;27;20048;-84
2023/01/13 11:55:57;;;;;;;15.02;3.30;;;8.50;99.90;;;;;;5095977;27;20063;-84
2023/01/13 11:58:45;;;;;;;17.42;2.42;;;8.60;99.90;;;;;;5126355;27;20108;-84
2023/01/13 12:01:31;;;;;;;13.95;2.13;;;8.70;99.90;;;;;;5125518;27;20136;-82
2023/01/13 12:03:59;;;;;;;15.30;2.05;;;8.70;99.90;;;;;;5125910;27;20055;-84
2023/01/13 12:06:38;;;;;;;13.40;2.03;;;8.70;99.90;;;;;;5125468;27;20130;-84
2023/01/13 12:09:24;;;;;;;14.35;2.10;;;8.70;99.90;;;;;;5126523;27;20493;-82
2023/01/13 12:14:37;;;;;;;17.05;2.33;;;8.60;99.90;;;;;;5126990;27;20489;-83
2023/01/13 12:17:14;;;;;;;15.70;2.00;;;8.60;99.90;;;;;;5109631;27;20039;-84
2023/01/13 12:19:45;;;;;;;20.35;2.60;;;8.50;99.90;;;;;;5127448;27;20430;-89
2023/01/13 12:22:14;;;;;;;18.63;2.78;;;8.60;99.90;;;;;;5109646;27;20035;-86
2023/01/13 12:25:16;;;;;;;16.98;2.55;;;8.60;99.90;;;;;;5126394;27;20085;-84
2023/01/13 12:27:59;;;;;;;13.93;2.08;;;8.60;99.90;;;;;;5110095;27;20058;-84
2023/01/13 12:30:51;;;;;;;15.00;2.42;;;8.70;99.90;;;;;;5109873;27;20489;-88
2023/01/13 12:33:42;;;;;;;23.08;2.63;;;8.80;99.90;;;;;;5109228;27;20047;-85
2023/01/13 12:36:14;;;;;;;20.27;2.40;;;8.80;99.90;;;;;;5109358;27;20520;-85
2023/01/13 12:39:08;;;;;;;17.33;2.37;;;8.70;99.90;;;;;;5127137;27;20043;-85
2023/01/13 12:45:10;;;;;;;15.95;3.00;;;8.80;99.90;;;;;;5126901;27;20053;-84
2023/01/13 12:47:45;;;;;;;16.73;2.80;;;8.90;99.90;;;;;;5107573;27;20134;-82
2023/01/13 12:50:25;;;;;;;16.35;2.95;;;8.90;99.90;;;;;;5109155;27;20039;-82
2023/01/13 12:53:29;;;;;;;12.73;1.92;;;8.90;99.90;;;;;;5108521;27;20059;-82
2023/01/13 12:56:34;;;;;;;17.52;3.40;;;8.90;99.90;;;;;;5127049;27;20168;-82
2023/01/13 12:59:18;;;;;;;22.20;3.53;;;9.00;99.90;;;;;;5108592;27;20126;-83
2023/01/13 13:02:10;;;;;;;7.22;1.42;;;9.00;99.90;;;;;;5125393;27;20427;-82
2023/01/13 13:04:50;;;;;;;17.77;2.40;;;9.00;99.90;;;;;;5110291;27;20062;-83
2023/01/13 13:07:31;;;;;;;22.00;2.17;;;9.00;99.90;;;;;;5109608;27;20683;-84
2023/01/13 13:10:23;;;;;;;21.60;2.03;;;9.00;99.90;;;;;;5126892;27;20131;-84
2023/01/13 13:15:42;;;;;;;9.18;1.88;;;9.40;99.90;;;;;;5127109;27;20100;-83
2023/01/13 13:18:29;;;;;;;10.73;1.45;;;9.00;99.90;;;;;;5110456;27;20103;-83
2023/01/13 13:21:05;;;;;;;9.10;1.67;;;9.00;99.90;;;;;;5110973;27;20383;-82
2023/01/13 13:23:46;;;;;;;12.00;2.15;;;9.00;99.90;;;;;;5109129;27;20085;-82
2023/01/13 13:26:18;;;;;;;11.73;2.50;;;9.00;99.90;;;;;;5127015;27;20074;-83
2023/01/13 13:29:03;;;;;;;15.37;1.73;;;9.00;99.90;;;;;;5109265;27;20124;-84
2023/01/13 13:31:43;;;;;;;17.30;1.80;;;8.90;99.90;;;;;;5126014;27;20047;-84
2023/01/13 13:34:20;;;;;;;12.45;1.30;;;9.00;99.90;;;;;;5125801;27;20043;-84
2023/01/13 13:36:45;;;;;;;7.43;1.85;;;9.00;99.90;;;;;;5125378;27;20051;-83
2023/01/13 13:47:45;;;;;;;12.18;2.08;;;9.10;99.90;;;;;;5126302;27;20070;-83
2023/01/13 13:50:14;;;;;;;17.98;2.00;;;9.10;99.90;;;;;;5124821;27;20474;-82
2023/01/13 13:53:10;;;;;;;14.02;2.13;;;8.80;99.90;;;;;;5125387;27;20051;-83
2023/01/13 13:55:37;;;;;;;15.80;2.72;;;8.70;99.90;;;;;;5082919;27;20104;-83
2023/01/13 13:58:03;;;;;;;10.77;1.52;;;9.40;99.90;;;;;;5091393;27;20506;-84
2023/01/13 14:00:37;;;;;;;12.68;1.80;;;8.70;99.90;;;;;;5108296;27;20175;-82
2023/01/13 14:03:18;;;;;;;14.35;2.40;;;8.70;99.90;;;;;;5108142;28;20176;-84
2023/01/13 14:05:54;;;;;;;19.23;2.70;;;8.70;99.90;;;;;;5125236;27;20051;-82
2023/01/13 14:08:21;;;;;;;14.32;2.00;;;8.70;99.90;;;;;;5125954;27;20051;-83
2023/01/13 14:10:47;;;;;;;12.02;2.30;;;9.40;99.90;;;;;;5124398;27;20039;-83
2023/01/13 14:13:28;;;;;;;13.90;1.88;;;8.80;99.90;;;;;;5108330;28;20053;-83
2023/01/13 14:16:05;;;;;;;16.50;2.60;;;9.10;99.90;;;;;;5125362;28;20046;-84